sensor_id;sensor_type;location;lat;lon;timestamp;P1;durP1;ratioP1;P2;durP2;ratioP2
60352;SDS011;46196;52.970;6.954;2023-02-12T00:00:43;25.73;;;7.97;;
60352;SDS011;46196;52.970;6.954;2023-02-12T00:03:09;27.33;;;8.95;;
60352;SDS011;46196;52.970;6.954;2023-02-12T00:05:39;20.83;;;7.82;;
60352;SDS011;46196;52.970;6.954;2023-02-12T00:08:06;25.02;;;7.85;;
60352;SDS011;46196;52.970;6.954;2023-02-12T00:10:32;25.35;;;8.57;;
60352;SDS011;46196;52.970;6.954;2023-02-12T00:12:58;17.33;;;5.88;;
60352;SDS011;46196;52.970;6.954;2023-02-12T00:15:24;23.02;;;7.97;;
60352;SDS011;46196;52.970;6.954;2023-02-12T00:17:50;22.10;;;9.50;;
60352;SDS011;46196;52.970;6.954;2023-02-12T00:20:16;26.30;;;8.48;;
60352;SDS011;46196;52.970;6.954;2023-02-12T00:22:41;29.08;;;8.32;;
60352;SDS011;46196;52.970;6.954;2023-02-12T00:25:07;23.52;;;8.45;;
60352;SDS011;46196;52.970;6.954;2023-02-12T00:27:33;34.35;;;8.70;;
60352;SDS011;46196;52.970;6.954;2023-02-12T00:29:59;30.73;;;9.38;;
60352;SDS011;46196;52.970;6.954;2023-02-12T00:32:28;30.75;;;9.23;;
60352;SDS011;46196;52.970;6.954;2023-02-12T00:34:54;27.20;;;8.82;;
60352;SDS011;46196;52.970;6.954;2023-02-12T00:37:19;26.60;;;8.10;;
60352;SDS011;46196;52.970;6.954;2023-02-12T00:39:45;19.58;;;7.35;;
60352;SDS011;46196;52.970;6.954;2023-02-12T00:42:11;21.52;;;8.02;;
60352;SDS011;46196;52.970;6.954;2023-02-12T00:44:37;23.23;;;7.97;;
60352;SDS011;46196;52.970;6.954;2023-02-12T00:47:03;24.42;;;8.38;;
60352;SDS011;46196;52.970;6.954;2023-02-12T00:49:29;22.52;;;8.82;;
60352;SDS011;46196;52.970;6.954;2023-02-12T00:52:01;21.00;;;7.88;;
60352;SDS011;46196;52.970;6.954;2023-02-12T00:54:29;22.00;;;7.43;;
60352;SDS011;46196;52.970;6.954;2023-02-12T00:56:55;28.75;;;8.82;;
60352;SDS011;46196;52.970;6.954;2023-02-12T00:59:22;23.42;;;7.53;;
60352;SDS011;46196;52.970;6.954;2023-02-12T01:01:48;20.45;;;8.07;;
60352;SDS011;46196;52.970;6.954;2023-02-12T01:04:14;21.02;;;8.80;;
60352;SDS011;46196;52.970;6.954;2023-02-12T01:06:40;26.73;;;8.80;;
60352;SDS011;46196;52.970;6.954;2023-02-12T01:09:06;20.77;;;8.82;;
60352;SDS011;46196;52.970;6.954;2023-02-12T01:11:32;24.60;;;8.52;;
60352;SDS011;46196;52.970;6.954;2023-02-12T01:13:58;23.02;;;8.70;;
60352;SDS011;46196;52.970;6.954;2023-02-12T01:16:24;28.65;;;9.45;;
60352;SDS011;46196;52.970;6.954;2023-02-12T01:18:51;19.85;;;7.35;;
60352;SDS011;46196;52.970;6.954;2023-02-12T01:21:19;23.13;;;8.80;;
60352;SDS011;46196;52.970;6.954;2023-02-12T01:23:47;26.53;;;7.93;;
60352;SDS011;46196;52.970;6.954;2023-02-12T01:26:14;25.15;;;8.32;;
60352;SDS011;46196;52.970;6.954;2023-02-12T01:28:41;24.58;;;8.30;;
60352;SDS011;46196;52.970;6.954;2023-02-12T01:31:09;20.20;;;7.43;;
60352;SDS011;46196;52.970;6.954;2023-02-12T01:33:36;22.83;;;7.72;;
60352;SDS011;46196;52.970;6.954;2023-02-12T01:36:02;22.20;;;7.90;;
60352;SDS011;46196;52.970;6.954;2023-02-12T01:38:28;28.23;;;8.65;;
60352;SDS011;46196;52.970;6.954;2023-02-12T01:41:00;25.50;;;9.43;;
60352;SDS011;46196;52.970;6.954;2023-02-12T01:43:30;24.85;;;8.30;;
60352;SDS011;46196;52.970;6.954;2023-02-12T01:45:58;20.75;;;7.20;;
60352;SDS011;46196;52.970;6.954;2023-02-12T01:48:25;18.95;;;8.07;;
60352;SDS011;46196;52.970;6.954;2023-02-12T01:50:53;24.77;;;8.75;;
60352;SDS011;46196;52.970;6.954;2023-02-12T01:53:19;18.65;;;8.43;;
60352;SDS011;46196;52.970;6.954;2023-02-12T01:55:51;25.52;;;9.98;;
60352;SDS011;46196;52.970;6.954;2023-02-12T01:58:20;33.22;;;11.25;;
60352;SDS011;46196;52.970;6.954;2023-02-12T02:00:48;28.25;;;10.02;;
60352;SDS011;46196;52.970;6.954;2023-02-12T02:03:14;29.27;;;11.38;;
60352;SDS011;46196;52.970;6.954;2023-02-12T02:08:09;32.03;;;10.13;;
60352;SDS011;46196;52.970;6.954;2023-02-12T02:10:36;30.35;;;10.85;;
60352;SDS011;46196;52.970;6.954;2023-02-12T02:13:02;31.95;;;11.77;;
60352;SDS011;46196;52.970;6.954;2023-02-12T02:15:47;25.10;;;10.70;;
60352;SDS011;46196;52.970;6.954;2023-02-12T02:18:19;32.20;;;11.25;;
60352;SDS011;46196;52.970;6.954;2023-02-12T02:29:35;30.48;;;10.27;;
60352;SDS011;46196;52.970;6.954;2023-02-12T02:32:09;28.52;;;10.82;;
60352;SDS011;46196;52.970;6.954;2023-02-12T02:34:45;20.73;;;8.90;;
60352;SDS011;46196;52.970;6.954;2023-02-12T02:37:18;26.25;;;8.85;;
60352;SDS011;46196;52.970;6.954;2023-02-12T02:40:11;27.42;;;10.90;;
60352;SDS011;46196;52.970;6.954;2023-02-12T02:42:43;31.77;;;12.00;;
60352;SDS011;46196;52.970;6.954;2023-02-12T02:45:29;30.80;;;11.48;;
60352;SDS011;46196;52.970;6.954;2023-02-12T02:48:07;30.10;;;12.57;;
60352;SDS011;46196;52.970;6.954;2023-02-12T02:50:34;28.17;;;11.23;;
60352;SDS011;46196;52.970;6.954;2023-02-12T02:53:09;33.13;;;11.68;;
60352;SDS011;46196;52.970;6.954;2023-02-12T02:55:42;32.72;;;12.20;;
60352;SDS011;46196;52.970;6.954;2023-02-12T02:58:15;22.67;;;10.75;;
60352;SDS011;46196;52.970;6.954;2023-02-12T03:09:05;34.80;;;12.87;;
60352;SDS011;46196;52.970;6.954;2023-02-12T03:11:39;27.55;;;11.30;;
60352;SDS011;46196;52.970;6.954;2023-02-12T03:14:14;25.88;;;11.15;;
60352;SDS011;46196;52.970;6.954;2023-02-12T03:19:24;33.35;;;12.40;;
60352;SDS011;46196;52.970;6.954;2023-02-12T03:27:08;26.75;;;11.27;;
60352;SDS011;46196;52.970;6.954;2023-02-12T03:29:52;30.67;;;12.32;;
60352;SDS011;46196;52.970;6.954;2023-02-12T03:38:04;31.13;;;11.10;;
60352;SDS011;46196;52.970;6.954;2023-02-12T03:40:37;33.85;;;12.30;;
60352;SDS011;46196;52.970;6.954;2023-02-12T03:43:24;32.83;;;12.13;;
60352;SDS011;46196;52.970;6.954;2023-02-12T03:48:34;37.10;;;11.67;;
60352;SDS011;46196;52.970;6.954;2023-02-12T03:53:57;32.28;;;12.02;;
60352;SDS011;46196;52.970;6.954;2023-02-12T03:56:25;35.63;;;12.20;;
60352;SDS011;46196;52.970;6.954;2023-02-12T03:58:54;34.00;;;13.68;;
60352;SDS011;46196;52.970;6.954;2023-02-12T04:01:20;30.27;;;12.35;;
60352;SDS011;46196;52.970;6.954;2023-02-12T04:03:46;23.73;;;10.93;;
60352;SDS011;46196;52.970;6.954;2023-02-12T04:06:25;39.33;;;13.60;;
60352;SDS011;46196;52.970;6.954;2023-02-12T04:08:53;35.95;;;11.98;;
60352;SDS011;46196;52.970;6.954;2023-02-12T04:31:13;35.90;;;12.35;;
60352;SDS011;46196;52.970;6.954;2023-02-12T04:34:16;35.20;;;12.95;;
60352;SDS011;46196;52.970;6.954;2023-02-12T04:36:53;39.22;;;14.68;;
60352;SDS011;46196;52.970;6.954;2023-02-12T04:39:27;36.72;;;14.70;;
60352;SDS011;46196;52.970;6.954;2023-02-12T04:42:01;38.85;;;13.90;;
60352;SDS011;46196;52.970;6.954;2023-02-12T04:44:29;41.30;;;13.73;;
60352;SDS011;46196;52.970;6.954;2023-02-12T04:46:56;38.85;;;14.93;;
60352;SDS011;46196;52.970;6.954;2023-02-12T04:49:22;36.60;;;14.68;;
60352;SDS011;46196;52.970;6.954;2023-02-12T04:51:48;38.03;;;14.05;;
60352;SDS011;46196;52.970;6.954;2023-02-12T04:54:15;40.47;;;13.63;;
60352;SDS011;46196;52.970;6.954;2023-02-12T04:56:42;35.10;;;13.23;;
60352;SDS011;46196;52.970;6.954;2023-02-12T04:59:08;34.75;;;13.23;;
60352;SDS011;46196;52.970;6.954;2023-02-12T05:01:35;37.03;;;13.20;;
60352;SDS011;46196;52.970;6.954;2023-02-12T05:04:02;31.02;;;11.30;;
60352;SDS011;46196;52.970;6.954;2023-02-12T05:06:29;32.92;;;13.98;;
60352;SDS011;46196;52.970;6.954;2023-02-12T05:08:55;30.67;;;11.35;;
60352;SDS011;46196;52.970;6.954;2023-02-12T05:11:28;28.35;;;11.65;;
60352;SDS011;46196;52.970;6.954;2023-02-12T05:13:53;29.20;;;13.45;;
60352;SDS011;46196;52.970;6.954;2023-02-12T05:16:19;28.25;;;11.75;;
60352;SDS011;46196;52.970;6.954;2023-02-12T05:18:46;23.90;;;10.07;;
60352;SDS011;46196;52.970;6.954;2023-02-12T05:21:12;29.25;;;11.90;;
60352;SDS011;46196;52.970;6.954;2023-02-12T05:23:38;22.92;;;9.55;;
60352;SDS011;46196;52.970;6.954;2023-02-12T05:26:07;28.70;;;12.18;;
60352;SDS011;46196;52.970;6.954;2023-02-12T05:28:36;27.73;;;12.32;;
60352;SDS011;46196;52.970;6.954;2023-02-12T05:31:03;20.10;;;8.77;;
60352;SDS011;46196;52.970;6.954;2023-02-12T05:33:31;28.13;;;12.07;;
60352;SDS011;46196;52.970;6.954;2023-02-12T05:36:06;23.10;;;9.88;;
60352;SDS011;46196;52.970;6.954;2023-02-12T05:38:33;31.50;;;12.88;;
60352;SDS011;46196;52.970;6.954;2023-02-12T05:41:00;29.65;;;11.73;;
60352;SDS011;46196;52.970;6.954;2023-02-12T05:43:27;29.45;;;12.48;;
60352;SDS011;46196;52.970;6.954;2023-02-12T05:45:53;20.98;;;9.63;;
60352;SDS011;46196;52.970;6.954;2023-02-12T05:48:18;27.55;;;11.57;;
60352;SDS011;46196;52.970;6.954;2023-02-12T05:50:44;29.02;;;11.32;;
60352;SDS011;46196;52.970;6.954;2023-02-12T05:53:10;26.55;;;11.80;;
60352;SDS011;46196;52.970;6.954;2023-02-12T05:55:35;25.40;;;11.70;;
60352;SDS011;46196;52.970;6.954;2023-02-12T05:58:01;26.55;;;11.57;;
60352;SDS011;46196;52.970;6.954;2023-02-12T06:00:27;26.30;;;11.50;;
60352;SDS011;46196;52.970;6.954;2023-02-12T06:02:53;29.00;;;12.40;;
60352;SDS011;46196;52.970;6.954;2023-02-12T06:05:18;29.50;;;12.40;;
60352;SDS011;46196;52.970;6.954;2023-02-12T06:07:44;27.00;;;11.60;;
60352;SDS011;46196;52.970;6.954;2023-02-12T06:10:10;25.67;;;11.10;;
60352;SDS011;46196;52.970;6.954;2023-02-12T06:12:36;23.52;;;10.98;;
60352;SDS011;46196;52.970;6.954;2023-02-12T06:15:02;28.95;;;11.85;;
60352;SDS011;46196;52.970;6.954;2023-02-12T06:17:27;26.35;;;11.75;;
60352;SDS011;46196;52.970;6.954;2023-02-12T06:19:53;25.17;;;11.68;;
60352;SDS011;46196;52.970;6.954;2023-02-12T06:22:19;26.75;;;11.13;;
60352;SDS011;46196;52.970;6.954;2023-02-12T06:24:45;24.88;;;11.27;;
60352;SDS011;46196;52.970;6.954;2023-02-12T06:27:10;16.83;;;6.93;;
60352;SDS011;46196;52.970;6.954;2023-02-12T06:29:36;24.67;;;12.48;;
60352;SDS011;46196;52.970;6.954;2023-02-12T06:32:02;26.13;;;11.68;;
60352;SDS011;46196;52.970;6.954;2023-02-12T06:34:28;29.58;;;11.65;;
60352;SDS011;46196;52.970;6.954;2023-02-12T06:36:54;26.65;;;11.82;;
60352;SDS011;46196;52.970;6.954;2023-02-12T06:39:19;30.70;;;12.20;;
60352;SDS011;46196;52.970;6.954;2023-02-12T06:41:45;25.48;;;10.32;;
60352;SDS011;46196;52.970;6.954;2023-02-12T06:44:11;28.58;;;12.45;;
60352;SDS011;46196;52.970;6.954;2023-02-12T06:46:37;25.17;;;9.55;;
60352;SDS011;46196;52.970;6.954;2023-02-12T06:49:03;19.42;;;9.10;;
60352;SDS011;46196;52.970;6.954;2023-02-12T06:51:29;29.95;;;12.30;;
60352;SDS011;46196;52.970;6.954;2023-02-12T06:53:55;22.73;;;11.25;;
60352;SDS011;46196;52.970;6.954;2023-02-12T06:56:22;27.95;;;12.02;;
60352;SDS011;46196;52.970;6.954;2023-02-12T06:58:54;26.48;;;11.55;;
60352;SDS011;46196;52.970;6.954;2023-02-12T07:01:23;31.67;;;12.00;;
60352;SDS011;46196;52.970;6.954;2023-02-12T07:03:51;26.20;;;11.07;;
60352;SDS011;46196;52.970;6.954;2023-02-12T07:06:19;24.75;;;10.93;;
60352;SDS011;46196;52.970;6.954;2023-02-12T07:08:45;26.90;;;11.32;;
60352;SDS011;46196;52.970;6.954;2023-02-12T07:11:11;16.88;;;8.23;;
60352;SDS011;46196;52.970;6.954;2023-02-12T07:13:39;34.35;;;13.05;;
60352;SDS011;46196;52.970;6.954;2023-02-12T07:16:06;29.17;;;12.32;;
60352;SDS011;46196;52.970;6.954;2023-02-12T07:18:33;30.30;;;11.93;;
60352;SDS011;46196;52.970;6.954;2023-02-12T07:21:00;31.95;;;12.70;;
60352;SDS011;46196;52.970;6.954;2023-02-12T07:23:26;31.75;;;11.77;;
60352;SDS011;46196;52.970;6.954;2023-02-12T07:25:55;31.95;;;13.63;;
60352;SDS011;46196;52.970;6.954;2023-02-12T07:28:22;28.35;;;11.80;;
60352;SDS011;46196;52.970;6.954;2023-02-12T07:30:48;31.83;;;12.82;;
60352;SDS011;46196;52.970;6.954;2023-02-12T07:33:14;39.60;;;13.88;;
60352;SDS011;46196;52.970;6.954;2023-02-12T07:35:40;33.67;;;13.35;;
60352;SDS011;46196;52.970;6.954;2023-02-12T07:38:06;36.33;;;12.82;;
60352;SDS011;46196;52.970;6.954;2023-02-12T07:40:32;31.83;;;12.30;;
60352;SDS011;46196;52.970;6.954;2023-02-12T07:42:58;34.53;;;12.77;;
60352;SDS011;46196;52.970;6.954;2023-02-12T07:45:24;41.15;;;14.20;;
60352;SDS011;46196;52.970;6.954;2023-02-12T07:47:49;34.10;;;13.30;;
60352;SDS011;46196;52.970;6.954;2023-02-12T07:50:15;39.10;;;13.63;;
60352;SDS011;46196;52.970;6.954;2023-02-12T07:52:41;31.00;;;13.52;;
60352;SDS011;46196;52.970;6.954;2023-02-12T07:55:07;35.50;;;13.13;;
60352;SDS011;46196;52.970;6.954;2023-02-12T07:57:34;27.42;;;11.75;;
60352;SDS011;46196;52.970;6.954;2023-02-12T08:00:00;32.08;;;12.30;;
60352;SDS011;46196;52.970;6.954;2023-02-12T08:02:26;38.65;;;13.52;;
60352;SDS011;46196;52.970;6.954;2023-02-12T08:04:56;35.22;;;12.35;;
60352;SDS011;46196;52.970;6.954;2023-02-12T08:07:22;32.72;;;11.93;;
60352;SDS011;46196;52.970;6.954;2023-02-12T08:09:48;31.65;;;12.57;;
60352;SDS011;46196;52.970;6.954;2023-02-12T08:12:15;35.92;;;12.63;;
60352;SDS011;46196;52.970;6.954;2023-02-12T08:14:41;34.83;;;13.90;;
60352;SDS011;46196;52.970;6.954;2023-02-12T08:17:07;32.70;;;11.98;;
60352;SDS011;46196;52.970;6.954;2023-02-12T08:19:34;32.85;;;11.80;;
60352;SDS011;46196;52.970;6.954;2023-02-12T08:21:59;35.42;;;12.48;;
60352;SDS011;46196;52.970;6.954;2023-02-12T08:24:27;28.15;;;12.25;;
60352;SDS011;46196;52.970;6.954;2023-02-12T08:26:54;27.17;;;10.13;;
60352;SDS011;46196;52.970;6.954;2023-02-12T08:29:22;28.52;;;11.23;;
60352;SDS011;46196;52.970;6.954;2023-02-12T08:31:57;26.02;;;10.95;;
60352;SDS011;46196;52.970;6.954;2023-02-12T08:34:25;26.90;;;11.48;;
60352;SDS011;46196;52.970;6.954;2023-02-12T08:36:56;24.33;;;10.43;;
60352;SDS011;46196;52.970;6.954;2023-02-12T08:39:22;25.38;;;10.85;;
60352;SDS011;46196;52.970;6.954;2023-02-12T08:41:49;29.77;;;10.73;;
60352;SDS011;46196;52.970;6.954;2023-02-12T08:44:18;34.85;;;12.98;;
60352;SDS011;46196;52.970;6.954;2023-02-12T08:46:44;28.15;;;11.85;;
60352;SDS011;46196;52.970;6.954;2023-02-12T08:49:22;37.17;;;13.55;;
60352;SDS011;46196;52.970;6.954;2023-02-12T08:51:53;34.08;;;13.80;;
60352;SDS011;46196;52.970;6.954;2023-02-12T08:54:22;30.55;;;12.75;;
60352;SDS011;46196;52.970;6.954;2023-02-12T08:56:50;36.17;;;14.32;;
60352;SDS011;46196;52.970;6.954;2023-02-12T09:01:45;35.10;;;13.90;;
60352;SDS011;46196;52.970;6.954;2023-02-12T09:04:14;30.27;;;12.27;;
60352;SDS011;46196;52.970;6.954;2023-02-12T09:06:42;33.20;;;12.48;;
60352;SDS011;46196;52.970;6.954;2023-02-12T09:09:08;33.53;;;13.93;;
60352;SDS011;46196;52.970;6.954;2023-02-12T09:11:34;28.35;;;12.55;;
60352;SDS011;46196;52.970;6.954;2023-02-12T09:14:02;35.25;;;13.57;;
60352;SDS011;46196;52.970;6.954;2023-02-12T09:16:32;31.02;;;12.52;;
60352;SDS011;46196;52.970;6.954;2023-02-12T09:19:03;33.65;;;12.93;;
60352;SDS011;46196;52.970;6.954;2023-02-12T09:21:29;28.80;;;12.23;;
60352;SDS011;46196;52.970;6.954;2023-02-12T09:23:55;22.08;;;9.13;;
60352;SDS011;46196;52.970;6.954;2023-02-12T09:26:22;29.08;;;11.35;;
60352;SDS011;46196;52.970;6.954;2023-02-12T09:28:52;29.08;;;10.73;;
60352;SDS011;46196;52.970;6.954;2023-02-12T09:31:25;26.25;;;10.95;;
60352;SDS011;46196;52.970;6.954;2023-02-12T09:33:54;34.40;;;13.18;;
60352;SDS011;46196;52.970;6.954;2023-02-12T09:36:23;33.70;;;12.68;;
60352;SDS011;46196;52.970;6.954;2023-02-12T09:38:49;29.15;;;12.20;;
60352;SDS011;46196;52.970;6.954;2023-02-12T09:47:02;34.28;;;13.40;;
60352;SDS011;46196;52.970;6.954;2023-02-12T09:52:52;29.90;;;12.75;;
60352;SDS011;46196;52.970;6.954;2023-02-12T09:55:22;30.10;;;9.88;;
60352;SDS011;46196;52.970;6.954;2023-02-12T09:57:59;25.85;;;11.10;;
60352;SDS011;46196;52.970;6.954;2023-02-12T10:00:29;23.42;;;10.85;;
60352;SDS011;46196;52.970;6.954;2023-02-12T10:02:57;39.17;;;14.18;;
60352;SDS011;46196;52.970;6.954;2023-02-12T10:05:27;32.75;;;13.02;;
60352;SDS011;46196;52.970;6.954;2023-02-12T10:18:51;29.85;;;12.00;;
60352;SDS011;46196;52.970;6.954;2023-02-12T10:25:02;30.60;;;13.48;;
60352;SDS011;46196;52.970;6.954;2023-02-12T10:27:43;26.63;;;11.77;;
60352;SDS011;46196;52.970;6.954;2023-02-12T10:30:26;25.25;;;10.85;;
60352;SDS011;46196;52.970;6.954;2023-02-12T10:33:06;31.13;;;13.55;;
60352;SDS011;46196;52.970;6.954;2023-02-12T10:35:39;30.92;;;12.30;;
60352;SDS011;46196;52.970;6.954;2023-02-12T10:38:46;32.95;;;13.27;;
60352;SDS011;46196;52.970;6.954;2023-02-12T10:41:04;29.85;;;13.13;;
60352;SDS011;46196;52.970;6.954;2023-02-12T10:43:30;27.30;;;12.23;;
60352;SDS011;46196;52.970;6.954;2023-02-12T10:45:56;30.75;;;12.05;;
60352;SDS011;46196;52.970;6.954;2023-02-12T10:48:43;26.30;;;11.13;;
60352;SDS011;46196;52.970;6.954;2023-02-12T10:53:54;24.30;;;10.98;;
60352;SDS011;46196;52.970;6.954;2023-02-12T10:56:20;29.65;;;12.27;;
60352;SDS011;46196;52.970;6.954;2023-02-12T11:01:22;26.05;;;13.00;;
60352;SDS011;46196;52.970;6.954;2023-02-12T11:03:50;30.75;;;12.07;;
60352;SDS011;46196;52.970;6.954;2023-02-12T11:06:18;23.23;;;11.00;;
60352;SDS011;46196;52.970;6.954;2023-02-12T11:08:50;24.85;;;10.63;;
60352;SDS011;46196;52.970;6.954;2023-02-12T11:11:27;25.83;;;11.50;;
60352;SDS011;46196;52.970;6.954;2023-02-12T11:14:02;25.65;;;11.15;;
60352;SDS011;46196;52.970;6.954;2023-02-12T11:16:36;25.50;;;11.38;;
60352;SDS011;46196;52.970;6.954;2023-02-12T11:19:18;19.20;;;9.48;;
60352;SDS011;46196;52.970;6.954;2023-02-12T11:22:04;15.35;;;8.35;;
60352;SDS011;46196;52.970;6.954;2023-02-12T11:24:31;15.48;;;7.32;;
60352;SDS011;46196;52.970;6.954;2023-02-12T11:29:44;11.07;;;6.00;;
60352;SDS011;46196;52.970;6.954;2023-02-12T11:32:16;13.45;;;5.28;;
60352;SDS011;46196;52.970;6.954;2023-02-12T11:34:43;11.48;;;5.95;;
60352;SDS011;46196;52.970;6.954;2023-02-12T11:37:16;11.95;;;5.43;;
60352;SDS011;46196;52.970;6.954;2023-02-12T11:39:47;15.90;;;6.32;;
60352;SDS011;46196;52.970;6.954;2023-02-12T11:45:02;13.68;;;6.00;;
60352;SDS011;46196;52.970;6.954;2023-02-12T11:47:29;9.90;;;5.65;;
60352;SDS011;46196;52.970;6.954;2023-02-12T11:52:46;12.57;;;5.90;;
60352;SDS011;46196;52.970;6.954;2023-02-12T11:55:22;14.20;;;6.70;;
60352;SDS011;46196;52.970;6.954;2023-02-12T11:58:02;13.75;;;6.30;;
60352;SDS011;46196;52.970;6.954;2023-02-12T12:00:34;15.70;;;6.93;;
60352;SDS011;46196;52.970;6.954;2023-02-12T12:03:14;14.57;;;6.75;;
60352;SDS011;46196;52.970;6.954;2023-02-12T12:05:49;14.43;;;6.18;;
60352;SDS011;46196;52.970;6.954;2023-02-12T12:10:58;11.57;;;6.05;;
60352;SDS011;46196;52.970;6.954;2023-02-12T12:13:48;16.15;;;7.45;;
60352;SDS011;46196;52.970;6.954;2023-02-12T12:16:43;18.10;;;7.60;;
60352;SDS011;46196;52.970;6.954;2023-02-12T12:19:40;17.60;;;8.18;;
60352;SDS011;46196;52.970;6.954;2023-02-12T12:25:25;18.80;;;8.13;;
60352;SDS011;46196;52.970;6.954;2023-02-12T12:33:28;14.70;;;7.72;;
60352;SDS011;46196;52.970;6.954;2023-02-12T12:52:06;6.30;;;4.00;;
60352;SDS011;46196;52.970;6.954;2023-02-12T13:02:36;4.95;;;2.60;;
60352;SDS011;46196;52.970;6.954;2023-02-12T13:11:11;5.68;;;2.67;;
60352;SDS011;46196;52.970;6.954;2023-02-12T13:14:15;4.90;;;2.88;;
60352;SDS011;46196;52.970;6.954;2023-02-12T13:17:08;6.15;;;2.72;;
60352;SDS011;46196;52.970;6.954;2023-02-12T13:22:34;10.18;;;3.35;;
60352;SDS011;46196;52.970;6.954;2023-02-12T13:25:29;6.43;;;2.90;;
60352;SDS011;46196;52.970;6.954;2023-02-12T13:28:04;5.18;;;2.85;;
60352;SDS011;46196;52.970;6.954;2023-02-12T13:30:46;5.78;;;2.95;;
60352;SDS011;46196;52.970;6.954;2023-02-12T13:33:16;6.60;;;3.15;;
60352;SDS011;46196;52.970;6.954;2023-02-12T13:35:52;6.53;;;2.60;;
60352;SDS011;46196;52.970;6.954;2023-02-12T13:38:34;4.85;;;3.15;;
60352;SDS011;46196;52.970;6.954;2023-02-12T13:41:05;4.20;;;2.58;;
60352;SDS011;46196;52.970;6.954;2023-02-12T13:43:45;5.22;;;2.95;;
60352;SDS011;46196;52.970;6.954;2023-02-12T13:46:24;7.07;;;3.50;;
60352;SDS011;46196;52.970;6.954;2023-02-12T13:49:21;6.10;;;3.97;;
60352;SDS011;46196;52.970;6.954;2023-02-12T13:52:03;7.15;;;3.97;;
60352;SDS011;46196;52.970;6.954;2023-02-12T13:57:20;6.90;;;3.50;;
60352;SDS011;46196;52.970;6.954;2023-02-12T13:59:47;4.95;;;3.28;;
60352;SDS011;46196;52.970;6.954;2023-02-12T14:05:04;6.35;;;3.80;;
60352;SDS011;46196;52.970;6.954;2023-02-12T14:07:43;9.75;;;4.32;;
60352;SDS011;46196;52.970;6.954;2023-02-12T14:10:22;10.35;;;4.60;;
60352;SDS011;46196;52.970;6.954;2023-02-12T14:12:48;9.98;;;5.10;;
60352;SDS011;46196;52.970;6.954;2023-02-12T14:18:25;8.48;;;4.82;;
60352;SDS011;46196;52.970;6.954;2023-02-12T14:23:38;11.13;;;5.45;;
60352;SDS011;46196;52.970;6.954;2023-02-12T14:26:15;13.65;;;5.95;;
60352;SDS011;46196;52.970;6.954;2023-02-12T14:33:48;7.30;;;3.20;;
60352;SDS011;46196;52.970;6.954;2023-02-12T14:39:27;7.18;;;4.60;;
60352;SDS011;46196;52.970;6.954;2023-02-12T14:41:55;8.93;;;4.57;;
60352;SDS011;46196;52.970;6.954;2023-02-12T14:44:46;9.90;;;4.57;;
60352;SDS011;46196;52.970;6.954;2023-02-12T14:49:56;8.18;;;3.40;;
60352;SDS011;46196;52.970;6.954;2023-02-12T14:52:30;8.52;;;4.10;;
60352;SDS011;46196;52.970;6.954;2023-02-12T14:55:03;7.65;;;3.60;;
60352;SDS011;46196;52.970;6.954;2023-02-12T14:57:32;7.20;;;3.60;;
60352;SDS011;46196;52.970;6.954;2023-02-12T15:03:30;8.05;;;3.58;;
60352;SDS011;46196;52.970;6.954;2023-02-12T15:05:40;7.38;;;3.63;;
60352;SDS011;46196;52.970;6.954;2023-02-12T15:08:30;7.82;;;3.97;;
60352;SDS011;46196;52.970;6.954;2023-02-12T15:22:00;8.15;;;4.38;;
60352;SDS011;46196;52.970;6.954;2023-02-12T15:24:26;12.70;;;4.40;;
60352;SDS011;46196;52.970;6.954;2023-02-12T15:26:53;8.57;;;4.50;;
60352;SDS011;46196;52.970;6.954;2023-02-12T15:29:27;6.07;;;3.60;;
60352;SDS011;46196;52.970;6.954;2023-02-12T15:32:00;6.35;;;3.78;;
60352;SDS011;46196;52.970;6.954;2023-02-12T15:34:30;6.95;;;3.67;;
60352;SDS011;46196;52.970;6.954;2023-02-12T15:37:00;9.70;;;4.63;;
60352;SDS011;46196;52.970;6.954;2023-02-12T15:39:30;5.47;;;3.15;;
60352;SDS011;46196;52.970;6.954;2023-02-12T15:42:21;5.57;;;3.33;;
60352;SDS011;46196;52.970;6.954;2023-02-12T15:45:00;9.75;;;3.47;;
60352;SDS011;46196;52.970;6.954;2023-02-12T15:47:58;6.65;;;3.28;;
60352;SDS011;46196;52.970;6.954;2023-02-12T15:52:59;7.07;;;3.46;;
60352;SDS011;46196;52.970;6.954;2023-02-12T15:55:27;9.07;;;4.38;;
60352;SDS011;46196;52.970;6.954;2023-02-12T15:57:58;7.60;;;4.07;;
60352;SDS011;46196;52.970;6.954;2023-02-12T16:03:21;7.70;;;4.00;;
60352;SDS011;46196;52.970;6.954;2023-02-12T16:05:50;9.23;;;4.38;;
60352;SDS011;46196;52.970;6.954;2023-02-12T16:08:17;8.60;;;4.05;;
60352;SDS011;46196;52.970;6.954;2023-02-12T16:10:46;8.73;;;4.20;;
60352;SDS011;46196;52.970;6.954;2023-02-12T16:13:20;10.27;;;4.85;;
60352;SDS011;46196;52.970;6.954;2023-02-12T16:16:07;6.60;;;4.13;;
60352;SDS011;46196;52.970;6.954;2023-02-12T16:18:35;8.82;;;4.70;;
60352;SDS011;46196;52.970;6.954;2023-02-12T16:21:06;10.32;;;5.22;;
60352;SDS011;46196;52.970;6.954;2023-02-12T16:23:44;12.02;;;5.43;;
60352;SDS011;46196;52.970;6.954;2023-02-12T16:26:15;9.15;;;6.03;;
60352;SDS011;46196;52.970;6.954;2023-02-12T16:28:47;9.70;;;5.63;;
60352;SDS011;46196;52.970;6.954;2023-02-12T16:31:14;9.50;;;5.65;;
60352;SDS011;46196;52.970;6.954;2023-02-12T16:38:57;10.80;;;6.30;;
60352;SDS011;46196;52.970;6.954;2023-02-12T16:41:53;11.43;;;5.30;;
60352;SDS011;46196;52.970;6.954;2023-02-12T16:44:23;6.88;;;3.40;;
60352;SDS011;46196;52.970;6.954;2023-02-12T16:46:52;5.32;;;3.17;;
60352;SDS011;46196;52.970;6.954;2023-02-12T16:49:21;6.15;;;3.22;;
60352;SDS011;46196;52.970;6.954;2023-02-12T16:51:49;5.80;;;3.53;;
60352;SDS011;46196;52.970;6.954;2023-02-12T16:54:34;4.80;;;3.28;;
60352;SDS011;46196;52.970;6.954;2023-02-12T16:57:00;5.90;;;3.08;;
60352;SDS011;46196;52.970;6.954;2023-02-12T16:59:27;5.57;;;3.90;;
60352;SDS011;46196;52.970;6.954;2023-02-12T17:01:57;5.80;;;3.80;;
60352;SDS011;46196;52.970;6.954;2023-02-12T17:04:28;5.75;;;4.43;;
60352;SDS011;46196;52.970;6.954;2023-02-12T17:06:54;7.47;;;4.38;;
60352;SDS011;46196;52.970;6.954;2023-02-12T17:09:21;5.93;;;3.90;;
60352;SDS011;46196;52.970;6.954;2023-02-12T17:11:46;8.68;;;4.28;;
60352;SDS011;46196;52.970;6.954;2023-02-12T17:14:14;7.30;;;4.03;;
60352;SDS011;46196;52.970;6.954;2023-02-12T17:16:41;6.05;;;3.83;;
60352;SDS011;46196;52.970;6.954;2023-02-12T17:19:07;7.63;;;3.85;;
60352;SDS011;46196;52.970;6.954;2023-02-12T17:21:34;7.50;;;3.67;;
60352;SDS011;46196;52.970;6.954;2023-02-12T17:24:13;6.53;;;3.63;;
60352;SDS011;46196;52.970;6.954;2023-02-12T17:26:43;8.73;;;3.90;;
60352;SDS011;46196;52.970;6.954;2023-02-12T17:29:09;7.22;;;4.10;;
60352;SDS011;46196;52.970;6.954;2023-02-12T17:31:35;10.00;;;3.88;;
60352;SDS011;46196;52.970;6.954;2023-02-12T17:34:02;8.38;;;4.15;;
60352;SDS011;46196;52.970;6.954;2023-02-12T17:36:28;5.68;;;4.07;;
60352;SDS011;46196;52.970;6.954;2023-02-12T17:38:54;5.78;;;4.15;;
60352;SDS011;46196;52.970;6.954;2023-02-12T17:41:20;7.25;;;4.50;;
60352;SDS011;46196;52.970;6.954;2023-02-12T17:43:46;8.68;;;4.88;;
60352;SDS011;46196;52.970;6.954;2023-02-12T17:46:13;7.72;;;4.78;;
60352;SDS011;46196;52.970;6.954;2023-02-12T17:48:48;8.27;;;5.22;;
60352;SDS011;46196;52.970;6.954;2023-02-12T17:51:13;7.47;;;5.28;;
60352;SDS011;46196;52.970;6.954;2023-02-12T17:53:40;13.68;;;6.30;;
60352;SDS011;46196;52.970;6.954;2023-02-12T17:56:08;9.27;;;5.93;;
60352;SDS011;46196;52.970;6.954;2023-02-12T17:58:39;9.63;;;5.55;;